Time;durP1;ratioP1;P1;durP2;ratioP2;P2;SDS_P1;SDS_P2;PMS_P1;PMS_P2;Temp;Humidity;BMP_temperature;BMP_pressure;BME280_temperature;BME280_humidity;BME280_pressure;Samples;Min_cycle;Max_cycle;Signal;HPM_P1;HPM_P2
2022/04/15 00:02:01;;;;;;;14.30;10.30;;;4.50;99.90;;;;;;4976883;28;20089;-63
2022/04/15 00:04:30;;;;;;;13.27;10.82;;;4.50;99.90;;;;;;5004334;28;20081;-63
2022/04/15 00:06:58;;;;;;;16.30;10.75;;;4.50;99.90;;;;;;4973908;28;20471;-63
2022/04/15 00:09:25;;;;;;;13.90;11.73;;;4.50;99.90;;;;;;4978194;28;20133;-62
2022/04/15 00:11:53;;;;;;;16.20;10.65;;;4.50;99.90;;;;;;4975456;28;20155;-63
2022/04/15 00:14:20;;;;;;;14.93;10.68;;;4.50;99.90;;;;;;4975440;28;20069;-65
2022/04/15 00:16:48;;;;;;;16.40;12.65;;;4.50;99.90;;;;;;4976155;28;20121;-63
2022/04/15 00:19:15;;;;;;;15.52;11.90;;;4.50;99.90;;;;;;4981378;28;20038;-63
2022/04/15 00:21:43;;;;;;;15.55;11.77;;;4.50;99.90;;;;;;4969298;28;20135;-62
2022/04/15 00:24:10;;;;;;;16.30;13.07;;;4.50;99.90;;;;;;4965103;28;20050;-63
2022/04/15 00:26:37;;;;;;;20.73;14.18;;;4.50;99.90;;;;;;4975338;28;20046;-63
2022/04/15 00:29:06;;;;;;;15.27;12.70;;;4.60;99.90;;;;;;4975681;28;20069;-64
2022/04/15 00:31:34;;;;;;;17.83;11.95;;;4.60;99.90;;;;;;4980349;28;20454;-62
2022/04/15 00:34:02;;;;;;;17.17;13.63;;;4.50;99.90;;;;;;4986236;28;20045;-63
2022/04/15 00:36:30;;;;;;;18.02;13.30;;;4.60;99.90;;;;;;4984684;28;20070;-65
2022/04/15 00:38:57;;;;;;;18.30;13.23;;;4.60;99.90;;;;;;4974611;28;20141;-63
2022/04/15 00:41:24;;;;;;;18.25;13.27;;;4.60;99.90;;;;;;4984337;28;20062;-63
2022/04/15 00:43:55;;;;;;;19.13;13.90;;;4.60;99.90;;;;;;4975750;28;20065;-63
2022/04/15 00:46:22;;;;;;;17.67;12.43;;;4.50;99.90;;;;;;4973655;28;20141;-63
2022/04/15 00:48:49;;;;;;;18.67;13.88;;;4.50;99.90;;;;;;4979873;28;20464;-63
2022/04/15 00:51:16;;;;;;;16.35;12.88;;;4.50;99.90;;;;;;4984875;28;20205;-65
2022/04/15 00:53:45;;;;;;;15.10;10.93;;;4.50;99.90;;;;;;4982176;28;20053;-63
2022/04/15 00:56:13;;;;;;;16.17;12.18;;;4.50;99.90;;;;;;4979921;28;20058;-62
2022/04/15 00:58:41;;;;;;;17.33;11.50;;;4.40;99.90;;;;;;4977192;28;20043;-63
2022/04/15 01:09:44;;;;;;;18.75;11.82;;;4.40;99.90;;;;;;5008115;28;20045;-64
2022/04/15 01:12:11;;;;;;;19.38;11.80;;;4.30;99.90;;;;;;5014176;28;20068;-65
2022/04/15 01:14:38;;;;;;;18.83;11.82;;;4.30;99.90;;;;;;5036614;28;20047;-63
2022/04/15 01:17:05;;;;;;;17.77;11.57;;;4.30;99.90;;;;;;5035226;28;20479;-63
2022/04/15 01:19:32;;;;;;;19.35;12.43;;;4.30;99.90;;;;;;5035314;28;20180;-63
2022/04/15 01:22:02;;;;;;;21.50;14.32;;;4.30;99.90;;;;;;5031628;28;20057;-63
2022/04/15 01:24:29;;;;;;;27.48;15.27;;;4.30;99.90;;;;;;5040998;28;20392;-63
2022/04/15 01:26:57;;;;;;;19.00;12.27;;;4.30;99.90;;;;;;5033766;28;20156;-63
2022/04/15 01:29:27;;;;;;;21.23;11.73;;;4.20;99.90;;;;;;5033550;28;20061;-63
2022/04/15 01:31:54;;;;;;;16.80;12.10;;;4.20;99.90;;;;;;5039124;28;20124;-63
2022/04/15 01:34:21;;;;;;;17.13;11.38;;;4.20;99.90;;;;;;5038686;28;20041;-63
2022/04/15 01:36:48;;;;;;;18.60;11.55;;;4.20;99.90;;;;;;5040078;28;20060;-62
2022/04/15 01:39:15;;;;;;;12.73;9.52;;;4.10;99.90;;;;;;5037712;28;20385;-63
2022/04/15 01:41:44;;;;;;;13.48;9.63;;;4.20;99.90;;;;;;5024143;28;20151;-65
2022/04/15 01:44:15;;;;;;;16.67;9.82;;;4.20;99.90;;;;;;5030840;28;20077;-64
2022/04/15 01:46:42;;;;;;;16.77;9.25;;;4.10;99.90;;;;;;5025861;28;20061;-63
2022/04/15 01:49:09;;;;;;;11.95;9.55;;;4.10;99.90;;;;;;5029943;28;20045;-63
2022/04/15 01:51:37;;;;;;;11.82;8.82;;;4.10;99.90;;;;;;5053165;28;20045;-63
2022/04/15 01:54:04;;;;;;;11.82;8.43;;;4.10;99.90;;;;;;5038707;28;20044;-63
2022/04/15 01:56:31;;;;;;;12.40;9.15;;;4.10;99.90;;;;;;5040137;28;20061;-65
2022/04/15 01:58:57;;;;;;;14.15;8.73;;;4.00;99.90;;;;;;5042585;28;20963;-63
2022/04/15 02:01:24;;;;;;;10.32;8.27;;;4.00;99.90;;;;;;5033277;28;20071;-63
2022/04/15 02:03:51;;;;;;;15.98;8.30;;;4.10;99.90;;;;;;5040743;28;20558;-63
2022/04/15 02:06:18;;;;;;;16.27;9.90;;;4.00;99.90;;;;;;5033146;28;20468;-64
2022/04/15 02:08:45;;;;;;;17.77;9.68;;;4.00;99.90;;;;;;5033569;28;20037;-63
2022/04/15 02:11:12;;;;;;;11.25;9.30;;;4.00;99.90;;;;;;5038555;28;20068;-63
2022/04/15 02:13:39;;;;;;;16.42;10.52;;;4.00;99.90;;;;;;5041707;28;20037;-63
2022/04/15 02:16:06;;;;;;;13.25;9.90;;;4.00;99.90;;;;;;5026987;28;20753;-63
2022/04/15 02:18:33;;;;;;;13.52;8.13;;;4.00;99.90;;;;;;5030131;28;20053;-64
2022/04/15 02:21:00;;;;;;;12.65;7.70;;;4.00;99.90;;;;;;5031134;28;20329;-63
2022/04/15 02:23:27;;;;;;;14.90;8.00;;;4.00;99.90;;;;;;5038898;28;20053;-63
2022/04/15 02:25:53;;;;;;;12.05;8.18;;;4.00;99.90;;;;;;5025334;28;20041;-63
2022/04/15 02:28:20;;;;;;;11.45;6.88;;;4.00;99.90;;;;;;5026312;28;20167;-65
2022/04/15 02:30:47;;;;;;;12.10;7.05;;;4.00;99.90;;;;;;5031128;28;20463;-63
2022/04/15 02:33:15;;;;;;;11.70;7.80;;;4.00;99.90;;;;;;5033798;28;20056;-64
2022/04/15 02:35:42;;;;;;;14.73;7.28;;;4.00;99.90;;;;;;5031255;28;20462;-63
2022/04/15 02:38:09;;;;;;;11.15;6.78;;;4.00;99.90;;;;;;5036094;28;20029;-63
2022/04/15 02:40:36;;;;;;;10.20;6.63;;;4.00;99.90;;;;;;5023771;28;20069;-62
2022/04/15 02:43:04;;;;;;;10.15;7.45;;;4.00;99.90;;;;;;5024362;28;20415;-65
2022/04/15 02:45:32;;;;;;;9.40;5.68;;;4.00;99.90;;;;;;5031094;28;20429;-63
2022/04/15 02:47:59;;;;;;;7.55;6.32;;;4.00;99.90;;;;;;5029835;28;20118;-63
2022/04/15 02:50:28;;;;;;;11.75;6.25;;;4.00;99.90;;;;;;5034882;28;20383;-63
2022/04/15 02:52:55;;;;;;;7.88;6.35;;;4.00;99.90;;;;;;5028385;28;20041;-64
2022/04/15 02:55:21;;;;;;;8.90;6.22;;;4.00;99.90;;;;;;5026468;28;20132;-64
2022/04/15 02:57:48;;;;;;;7.78;6.88;;;3.90;99.90;;;;;;5037828;28;20111;-64
2022/04/15 03:00:16;;;;;;;6.53;4.85;;;3.90;99.90;;;;;;5026053;28;20434;-64
2022/04/15 03:02:42;;;;;;;13.77;6.43;;;3.90;99.90;;;;;;5021967;28;20119;-65
2022/04/15 03:05:09;;;;;;;7.05;5.18;;;3.90;99.90;;;;;;5022833;28;20128;-65
2022/04/15 03:07:37;;;;;;;4.60;4.10;;;3.90;99.90;;;;;;5036888;28;20068;-64
2022/04/15 03:10:06;;;;;;;5.60;4.90;;;3.90;99.90;;;;;;5025521;28;20045;-63
2022/04/15 03:12:34;;;;;;;5.78;4.85;;;3.90;99.90;;;;;;5031053;28;20096;-63
2022/04/15 03:15:04;;;;;;;6.20;4.03;;;3.90;99.90;;;;;;5037663;28;20452;-65
2022/04/15 03:17:31;;;;;;;6.32;4.22;;;3.90;99.90;;;;;;5031848;28;20060;-63
2022/04/15 03:20:02;;;;;;;5.93;3.95;;;3.90;99.90;;;;;;5023308;28;20213;-63
2022/04/15 03:22:39;;;;;;;5.35;4.85;;;3.90;99.90;;;;;;5037505;28;20110;-65
2022/04/15 03:25:09;;;;;;;5.25;4.45;;;3.90;99.90;;;;;;5032653;28;20096;-63
2022/04/15 03:27:36;;;;;;;6.88;4.57;;;3.90;99.90;;;;;;5025823;28;20045;-63
2022/04/15 03:30:05;;;;;;;6.20;4.35;;;3.90;99.90;;;;;;5029242;28;20084;-63
2022/04/15 03:32:32;;;;;;;8.68;4.90;;;3.90;99.90;;;;;;5035024;28;20044;-62
2022/04/15 03:34:59;;;;;;;6.10;5.38;;;3.90;99.90;;;;;;5021491;28;20395;-62
2022/04/15 03:37:26;;;;;;;5.38;4.88;;;3.90;99.90;;;;;;5040036;28;20041;-62
2022/04/15 03:39:53;;;;;;;6.10;4.85;;;3.80;99.90;;;;;;5028578;28;20053;-64
2022/04/15 03:42:20;;;;;;;10.55;5.82;;;3.80;99.90;;;;;;5035297;28;20045;-64
2022/04/15 03:44:47;;;;;;;7.20;4.70;;;3.80;99.90;;;;;;5036608;28;20164;-63
2022/04/15 03:47:14;;;;;;;11.52;5.28;;;3.80;99.90;;;;;;5014115;28;20088;-62
2022/04/15 03:49:41;;;;;;;8.98;5.10;;;3.80;99.90;;;;;;5028470;28;20663;-68
2022/04/15 03:52:08;;;;;;;9.32;5.53;;;3.80;99.90;;;;;;5045171;28;20530;-63
2022/04/15 03:54:35;;;;;;;6.10;4.78;;;3.80;99.90;;;;;;5034379;28;20483;-63
2022/04/15 03:57:02;;;;;;;6.85;4.70;;;3.80;99.90;;;;;;5028465;28;20420;-64
2022/04/15 03:59:29;;;;;;;6.50;5.80;;;3.80;99.90;;;;;;5038003;28;20029;-62
2022/04/15 04:01:55;;;;;;;8.65;5.93;;;3.80;99.90;;;;;;5038002;28;20469;-63
2022/04/15 04:04:22;;;;;;;5.65;5.07;;;3.80;99.90;;;;;;5038075;28;20491;-64
2022/04/15 04:06:49;;;;;;;5.35;4.78;;;3.80;99.90;;;;;;5033839;28;20041;-62
2022/04/15 04:09:16;;;;;;;5.95;5.35;;;3.80;99.90;;;;;;5036457;28;20040;-63
2022/04/15 04:11:43;;;;;;;7.43;5.07;;;3.70;99.90;;;;;;5035383;28;20279;-63
2022/04/15 04:14:10;;;;;;;10.15;4.88;;;3.70;99.90;;;;;;5036196;28;20447;-63
2022/04/15 04:16:41;;;;;;;8.98;4.60;;;3.70;99.90;;;;;;5029492;28;20053;-65
2022/04/15 04:19:08;;;;;;;6.13;5.13;;;3.70;99.90;;;;;;5035905;28;20136;-63
2022/04/15 04:21:36;;;;;;;5.75;4.22;;;3.70;99.90;;;;;;5031326;28;20482;-64
2022/04/15 04:24:03;;;;;;;5.47;4.50;;;3.70;99.90;;;;;;5023952;28;20045;-63
2022/04/15 04:26:30;;;;;;;3.95;3.55;;;3.70;99.90;;;;;;5032023;28;20096;-62
2022/04/15 04:28:57;;;;;;;6.20;3.95;;;3.70;99.90;;;;;;5028225;28;20045;-63
2022/04/15 04:31:24;;;;;;;9.18;4.35;;;3.70;99.90;;;;;;5038955;28;20037;-63
2022/04/15 04:33:51;;;;;;;4.55;3.90;;;3.80;99.90;;;;;;5032915;28;20129;-63
2022/04/15 04:36:18;;;;;;;4.95;3.83;;;3.70;99.90;;;;;;5026364;28;20088;-63
2022/04/15 04:38:45;;;;;;;4.03;3.30;;;3.80;99.90;;;;;;5055496;28;20041;-63
2022/04/15 04:41:12;;;;;;;5.55;4.00;;;3.80;99.90;;;;;;5035406;28;20052;-64
2022/04/15 04:43:39;;;;;;;5.32;3.95;;;3.80;99.90;;;;;;5036605;28;20136;-63
2022/04/15 04:46:06;;;;;;;5.20;3.58;;;3.80;99.90;;;;;;5039548;28;20422;-62
2022/04/15 04:48:33;;;;;;;4.78;3.72;;;3.80;99.90;;;;;;5033692;28;20036;-63
2022/04/15 04:51:00;;;;;;;6.35;2.97;;;3.80;99.90;;;;;;5034367;28;20099;-62
2022/04/15 04:53:26;;;;;;;5.13;3.78;;;3.80;99.90;;;;;;5037637;28;20139;-62
2022/04/15 04:55:53;;;;;;;4.35;2.90;;;3.80;99.90;;;;;;5032441;28;20041;-62
2022/04/15 04:58:20;;;;;;;2.90;2.60;;;3.80;99.90;;;;;;5033980;28;20048;-62
2022/04/15 05:00:47;;;;;;;5.50;3.15;;;3.80;99.90;;;;;;5034308;28;20132;-64
2022/04/15 05:03:14;;;;;;;5.53;3.42;;;3.80;99.90;;;;;;5039785;28;20044;-63
2022/04/15 05:05:41;;;;;;;3.20;2.90;;;3.80;99.90;;;;;;5031056;28;20206;-63
2022/04/15 05:08:08;;;;;;;4.80;3.45;;;3.80;99.90;;;;;;5037479;28;20549;-63
2022/04/15 05:10:34;;;;;;;6.82;3.92;;;3.90;99.90;;;;;;5040786;28;20152;-63
2022/04/15 05:13:01;;;;;;;5.20;3.38;;;3.90;99.90;;;;;;5037879;28;20128;-63
2022/04/15 05:15:29;;;;;;;3.80;3.47;;;3.90;99.90;;;;;;5040320;28;20154;-62
2022/04/15 05:17:56;;;;;;;5.50;3.90;;;3.90;99.90;;;;;;5036491;28;20100;-62
2022/04/15 05:20:22;;;;;;;6.30;4.68;;;3.90;99.90;;;;;;5036453;28;20045;-63
2022/04/15 05:22:49;;;;;;;4.55;3.90;;;3.90;99.90;;;;;;5035441;28;20060;-63
2022/04/15 05:25:16;;;;;;;6.35;5.13;;;3.90;99.90;;;;;;5016914;28;20140;-63
2022/04/15 05:27:43;;;;;;;8.10;6.03;;;4.00;99.90;;;;;;5035836;28;20037;-63
2022/04/15 05:30:10;;;;;;;5.60;4.60;;;4.00;99.90;;;;;;5031709;28;20029;-64
2022/04/15 05:32:37;;;;;;;6.10;5.13;;;4.00;99.90;;;;;;5032956;28;20482;-63
2022/04/15 05:35:04;;;;;;;7.30;5.65;;;4.00;99.90;;;;;;5032626;28;20064;-63
2022/04/15 05:37:31;;;;;;;6.13;5.50;;;4.10;99.90;;;;;;5035068;28;20145;-64
2022/04/15 05:39:58;;;;;;;10.27;6.05;;;4.10;99.90;;;;;;5035632;28;20072;-62
2022/04/15 05:42:28;;;;;;;7.72;4.97;;;4.10;99.90;;;;;;5037293;28;20091;-63
2022/04/15 05:44:55;;;;;;;7.40;4.60;;;4.10;99.90;;;;;;5040247;28;20044;-63
2022/04/15 05:47:22;;;;;;;5.72;4.45;;;4.10;99.90;;;;;;5034014;28;20060;-65
2022/04/15 05:49:49;;;;;;;6.43;4.65;;;4.20;99.90;;;;;;5011528;28;20513;-62
2022/04/15 05:52:16;;;;;;;9.60;4.93;;;4.20;99.90;;;;;;5026570;28;20510;-62
2022/04/15 05:54:43;;;;;;;10.65;6.57;;;4.20;99.90;;;;;;5030775;28;20203;-63
2022/04/15 05:57:10;;;;;;;12.50;6.68;;;4.10;99.90;;;;;;5049426;28;20258;-62
2022/04/15 05:59:36;;;;;;;8.63;6.00;;;4.10;99.90;;;;;;5035749;28;20075;-62
2022/04/15 06:02:04;;;;;;;16.75;6.25;;;4.10;99.90;;;;;;5034665;28;20045;-63
2022/04/15 06:04:31;;;;;;;10.27;7.18;;;4.10;99.90;;;;;;5035283;28;20298;-63
2022/04/15 06:06:58;;;;;;;12.43;6.00;;;4.10;99.90;;;;;;5028973;28;20160;-63
2022/04/15 06:09:25;;;;;;;12.63;6.28;;;4.10;99.90;;;;;;5031027;28;20038;-63
2022/04/15 06:11:55;;;;;;;7.90;4.70;;;4.10;99.90;;;;;;5029617;28;20045;-64
2022/04/15 06:14:22;;;;;;;13.77;6.07;;;4.10;99.90;;;;;;5031750;28;20498;-64
2022/04/15 06:16:49;;;;;;;8.40;4.97;;;4.10;99.90;;;;;;5022455;28;20453;-62
2022/04/15 06:19:16;;;;;;;7.20;5.32;;;4.10;99.90;;;;;;5040187;28;20394;-62
2022/04/15 06:21:51;;;;;;;9.35;5.25;;;4.10;99.90;;;;;;5038945;28;20277;-63
2022/04/15 06:24:18;;;;;;;9.23;4.97;;;4.10;99.90;;;;;;5040863;28;20047;-63
2022/04/15 06:26:45;;;;;;;11.10;4.90;;;4.20;99.90;;;;;;5030334;28;20324;-62
2022/04/15 06:29:15;;;;;;;5.70;4.20;;;4.20;99.90;;;;;;5037998;28;20118;-64
2022/04/15 06:31:42;;;;;;;5.25;3.95;;;4.20;99.90;;;;;;5035220;28;20122;-65
2022/04/15 06:34:09;;;;;;;4.60;3.50;;;4.30;99.90;;;;;;5038044;28;20044;-62
2022/04/15 06:36:35;;;;;;;6.32;4.13;;;4.30;99.90;;;;;;5022457;28;20061;-63
2022/04/15 06:39:02;;;;;;;6.65;3.05;;;4.20;99.90;;;;;;5025864;28;20131;-65
2022/04/15 06:41:29;;;;;;;8.38;3.78;;;4.30;99.90;;;;;;5037669;28;20064;-62
2022/04/15 06:43:56;;;;;;;4.03;2.33;;;4.30;99.90;;;;;;5028883;28;20127;-63
2022/04/15 06:46:23;;;;;;;4.68;2.63;;;4.40;99.90;;;;;;5035798;28;20045;-65
2022/04/15 06:48:50;;;;;;;4.00;2.13;;;4.40;99.90;;;;;;5021293;28;20538;-63
2022/04/15 06:51:17;;;;;;;2.90;2.13;;;4.40;99.90;;;;;;5037091;28;20040;-63
2022/04/15 06:53:43;;;;;;;4.15;2.92;;;4.40;99.90;;;;;;5031612;28;20099;-65
2022/04/15 06:56:11;;;;;;;3.47;1.95;;;4.40;99.90;;;;;;5031855;28;20460;-64
2022/04/15 06:58:38;;;;;;;4.53;1.38;;;4.50;99.90;;;;;;5034760;28;20052;-63
2022/04/15 07:01:05;;;;;;;3.15;2.17;;;4.50;99.90;;;;;;5037269;28;20391;-65
2022/04/15 07:03:32;;;;;;;1.40;1.17;;;4.60;99.90;;;;;;5038073;28;20052;-63
2022/04/15 07:05:59;;;;;;;3.97;3.15;;;4.60;99.90;;;;;;5030997;28;20154;-63
2022/04/15 07:08:26;;;;;;;2.05;0.80;;;4.50;99.90;;;;;;5031627;28;20044;-64
2022/04/15 07:10:53;;;;;;;7.45;0.98;;;4.50;99.90;;;;;;5024560;28;20091;-64
2022/04/15 07:13:20;;;;;;;3.38;1.02;;;4.50;99.90;;;;;;5028367;28;20040;-63
2022/04/15 07:15:47;;;;;;;1.65;0.90;;;4.60;99.90;;;;;;5039694;28;20317;-63
2022/04/15 07:18:14;;;;;;;5.10;0.65;;;4.60;99.90;;;;;;5034932;28;20168;-63
2022/04/15 07:20:41;;;;;;;2.10;0.90;;;4.60;99.90;;;;;;5032271;28;20550;-64
2022/04/15 07:23:07;;;;;;;3.78;1.00;;;4.60;99.90;;;;;;5048935;28;20037;-63
2022/04/15 07:25:34;;;;;;;3.97;1.42;;;4.60;99.90;;;;;;5032615;28;20410;-65
2022/04/15 07:28:02;;;;;;;2.95;1.10;;;4.50;99.90;;;;;;5034116;28;20086;-63
2022/04/15 07:30:30;;;;;;;5.00;1.30;;;4.40;99.90;;;;;;5035436;28;20487;-63
2022/04/15 07:32:57;;;;;;;3.47;1.60;;;4.30;99.90;;;;;;5039649;28;20045;-62
2022/04/15 07:35:24;;;;;;;3.25;1.35;;;4.30;99.90;;;;;;5033397;28;20107;-63
2022/04/15 07:37:51;;;;;;;4.05;1.70;;;4.40;99.90;;;;;;5032599;28;20116;-65
2022/04/15 07:40:18;;;;;;;6.78;1.73;;;4.30;99.90;;;;;;5035349;28;20163;-63
2022/04/15 07:42:44;;;;;;;3.40;1.42;;;4.40;99.90;;;;;;5025121;28;20103;-63
2022/04/15 07:45:11;;;;;;;4.10;1.35;;;4.40;99.90;;;;;;5035812;28;20120;-64
2022/04/15 07:47:38;;;;;;;4.20;1.80;;;4.40;99.90;;;;;;5032413;28;20049;-63
2022/04/15 07:50:23;;;;;;;4.07;1.10;;;4.40;99.90;;;;;;5029234;28;20055;-63
2022/04/15 07:52:55;;;;;;;8.23;2.38;;;4.40;99.90;;;;;;5033778;28;20086;-62
2022/04/15 07:55:22;;;;;;;5.85;2.85;;;4.40;99.90;;;;;;5033445;28;20132;-64
2022/04/15 07:57:48;;;;;;;8.00;3.92;;;4.30;99.90;;;;;;5038557;28;20108;-63
2022/04/15 08:00:16;;;;;;;23.90;3.53;;;4.20;99.90;;;;;;5038126;28;20151;-63
2022/04/15 08:02:43;;;;;;;3.53;1.42;;;4.20;99.90;;;;;;5028585;28;20060;-65
2022/04/15 08:05:10;;;;;;;5.45;1.33;;;4.20;99.90;;;;;;5035005;28;20045;-64
2022/04/15 08:07:37;;;;;;;5.38;2.00;;;4.20;99.90;;;;;;5031675;28;20140;-65
2022/04/15 08:10:06;;;;;;;2.08;1.55;;;4.20;99.90;;;;;;5028902;28;20072;-63
2022/04/15 08:12:33;;;;;;;8.93;2.28;;;4.10;99.90;;;;;;5035521;28;20123;-63
2022/04/15 08:15:00;;;;;;;5.68;1.88;;;4.10;99.90;;;;;;5030540;28;20097;-64
2022/04/15 08:17:29;;;;;;;8.48;2.50;;;4.00;99.90;;;;;;5037578;28;20708;-64
2022/04/15 08:19:58;;;;;;;11.43;1.88;;;4.10;99.90;;;;;;5036125;28;20033;-63
2022/04/15 08:22:25;;;;;;;3.88;2.65;;;4.20;99.90;;;;;;5027622;28;20688;-62
2022/04/15 08:24:52;;;;;;;4.78;2.72;;;4.20;99.90;;;;;;5030387;28;20045;-63
2022/04/15 08:27:19;;;;;;;1.92;1.75;;;4.20;99.90;;;;;;5033496;28;20128;-66
2022/04/15 08:29:47;;;;;;;2.10;1.33;;;4.30;99.90;;;;;;5032708;28;20699;-63
2022/04/15 08:32:14;;;;;;;4.65;1.55;;;4.20;99.90;;;;;;5032916;28;20049;-63
2022/04/15 08:34:42;;;;;;;5.05;1.80;;;4.20;99.90;;;;;;5027529;28;20041;-65
2022/04/15 08:37:09;;;;;;;3.97;1.75;;;4.20;99.90;;;;;;5034070;28;20657;-63
2022/04/15 08:39:36;;;;;;;1.90;1.30;;;4.30;99.90;;;;;;5039642;28;20080;-67
2022/04/15 08:42:07;;;;;;;2.80;1.50;;;4.30;99.90;;;;;;5030560;28;20572;-65
2022/04/15 08:44:34;;;;;;;7.28;2.10;;;4.30;99.90;;;;;;5033954;28;20049;-62
2022/04/15 08:47:02;;;;;;;3.33;1.40;;;4.40;99.90;;;;;;5033396;28;20189;-64
2022/04/15 08:49:29;;;;;;;4.40;2.22;;;4.50;99.90;;;;;;5024537;28;20068;-64
2022/04/15 08:51:57;;;;;;;2.42;1.42;;;4.40;99.90;;;;;;5034768;28;20427;-62
2022/04/15 08:54:25;;;;;;;8.90;2.17;;;4.40;99.90;;;;;;5029661;28;20057;-63
2022/04/15 08:56:52;;;;;;;3.78;1.52;;;4.30;99.90;;;;;;5046172;28;20040;-63
2022/04/15 08:59:19;;;;;;;4.18;1.95;;;4.20;99.90;;;;;;5048658;28;20185;-63
2022/04/15 09:01:46;;;;;;;4.25;1.38;;;4.20;99.90;;;;;;5045816;28;20131;-64
2022/04/15 09:04:13;;;;;;;6.82;1.73;;;4.20;99.90;;;;;;5043502;28;20158;-63
2022/04/15 09:06:42;;;;;;;2.97;1.50;;;4.30;99.90;;;;;;5045345;28;20127;-63
2022/04/15 09:09:14;;;;;;;5.47;1.58;;;4.30;99.90;;;;;;5045116;28;20492;-62
2022/04/15 09:11:44;;;;;;;3.95;1.60;;;4.40;99.90;;;;;;5045417;28;20070;-63
2022/04/15 09:14:13;;;;;;;3.65;1.45;;;4.50;99.90;;;;;;5043892;28;20043;-63
2022/04/15 09:16:42;;;;;;;1.98;1.20;;;4.50;99.90;;;;;;5032940;28;20037;-63
2022/04/15 09:19:10;;;;;;;3.33;1.30;;;4.60;99.90;;;;;;5044126;28;20037;-64
2022/04/15 09:21:39;;;;;;;4.82;1.13;;;4.60;99.90;;;;;;5044082;28;20126;-64
2022/04/15 09:24:11;;;;;;;2.65;1.10;;;4.50;99.90;;;;;;5040621;28;20084;-63
2022/04/15 09:26:44;;;;;;;6.55;0.93;;;4.50;99.90;;;;;;5039909;28;20136;-63
2022/04/15 09:29:15;;;;;;;3.97;1.48;;;4.50;99.90;;;;;;5035295;28;20480;-64
2022/04/15 09:31:45;;;;;;;3.10;1.27;;;4.60;99.90;;;;;;5039196;28;20503;-65
2022/04/15 09:34:12;;;;;;;5.32;1.20;;;4.70;99.90;;;;;;5036875;28;20428;-62
2022/04/15 09:36:40;;;;;;;3.22;0.88;;;4.70;99.90;;;;;;5031697;28;20140;-63
2022/04/15 09:39:14;;;;;;;4.03;1.13;;;4.80;99.90;;;;;;5048225;28;20060;-64
2022/04/15 09:41:54;;;;;;;1.98;1.40;;;4.90;99.90;;;;;;5043439;28;20562;-64
2022/04/15 09:44:22;;;;;;;4.65;1.20;;;4.70;99.90;;;;;;5042493;28;20170;-64
2022/04/15 09:46:54;;;;;;;5.15;1.75;;;4.70;99.90;;;;;;5037523;28;20098;-63
2022/04/15 09:49:25;;;;;;;6.03;2.25;;;4.70;99.90;;;;;;5027907;28;20133;-67
2022/04/15 09:51:52;;;;;;;3.80;1.10;;;4.70;99.90;;;;;;5036419;28;20049;-63
2022/04/15 09:54:27;;;;;;;6.95;1.98;;;4.70;99.90;;;;;;5029187;28;20139;-62
2022/04/15 09:56:57;;;;;;;2.72;1.23;;;4.70;99.90;;;;;;5035313;28;20551;-63
2022/04/15 09:59:26;;;;;;;3.42;0.93;;;4.70;99.90;;;;;;5038781;28;20053;-65
2022/04/15 10:01:57;;;;;;;10.23;1.40;;;4.70;99.90;;;;;;5034124;28;20069;-63
2022/04/15 10:04:26;;;;;;;4.80;1.13;;;4.60;99.90;;;;;;5034227;28;20045;-63
2022/04/15 10:06:54;;;;;;;2.40;1.08;;;4.70;99.90;;;;;;5042056;28;20447;-64
2022/04/15 10:09:21;;;;;;;1.40;1.25;;;4.70;99.90;;;;;;5050550;28;20293;-67
2022/04/15 10:11:49;;;;;;;5.80;1.13;;;4.80;99.90;;;;;;5042631;28;20145;-63
2022/04/15 10:14:18;;;;;;;5.18;1.10;;;4.90;99.90;;;;;;5043325;28;20112;-63
2022/04/15 10:16:45;;;;;;;1.85;1.02;;;4.90;99.90;;;;;;5032977;28;20100;-66
2022/04/15 10:19:12;;;;;;;5.22;1.98;;;4.70;99.90;;;;;;5040348;28;20079;-64
2022/04/15 10:21:41;;;;;;;3.22;1.42;;;4.70;99.90;;;;;;5030146;28;20068;-63
2022/04/15 10:24:09;;;;;;;5.05;1.30;;;4.70;99.90;;;;;;5034029;28;20048;-62
2022/04/15 10:26:44;;;;;;;1.80;1.08;;;4.70;99.90;;;;;;5038407;28;20479;-63
2022/04/15 10:29:12;;;;;;;5.22;1.50;;;4.70;99.90;;;;;;5033091;28;20487;-63
2022/04/15 10:31:40;;;;;;;3.10;1.35;;;4.80;99.90;;;;;;5041081;28;20578;-62
2022/04/15 10:34:09;;;;;;;3.30;1.02;;;4.90;99.90;;;;;;5041725;28;20038;-64
2022/04/15 10:36:38;;;;;;;1.38;0.98;;;4.90;99.90;;;;;;5038368;28;20436;-63
2022/04/15 10:39:09;;;;;;;1.73;1.15;;;5.00;99.90;;;;;;5032266;28;20351;-63
2022/04/15 10:41:58;;;;;;;3.90;1.48;;;5.00;99.90;;;;;;5044377;28;20508;-64
2022/04/15 10:44:27;;;;;;;1.55;1.00;;;5.00;99.90;;;;;;5037492;28;20387;-63
2022/04/15 10:47:22;;;;;;;6.28;1.92;;;5.10;99.90;;;;;;5028341;28;20037;-62
2022/04/15 10:50:03;;;;;;;3.88;1.10;;;5.10;99.90;;;;;;5023227;28;20555;-62
2022/04/15 10:52:34;;;;;;;8.48;1.75;;;5.10;99.90;;;;;;5026679;28;20380;-63
2022/04/15 10:55:07;;;;;;;4.22;1.25;;;5.20;99.90;;;;;;5026838;28;20064;-64
2022/04/15 10:57:40;;;;;;;1.83;0.90;;;5.20;99.90;;;;;;5025738;28;20037;-65
2022/04/15 11:02:57;;;;;;;5.22;1.60;;;5.20;99.90;;;;;;5033246;28;20098;-65
2022/04/15 11:05:33;;;;;;;5.85;1.10;;;5.20;99.90;;;;;;5037062;28;20504;-65
2022/04/15 11:08:22;;;;;;;5.57;1.13;;;5.10;99.90;;;;;;5036413;28;20537;-63
2022/04/15 11:10:52;;;;;;;2.83;0.93;;;5.20;99.90;;;;;;5046892;28;20112;-63
2022/04/15 11:13:39;;;;;;;4.90;1.42;;;5.30;99.90;;;;;;5035152;28;20041;-63
2022/04/15 11:16:13;;;;;;;3.22;1.15;;;5.40;99.90;;;;;;5045732;28;20053;-64
2022/04/15 11:18:43;;;;;;;4.72;1.33;;;5.30;99.90;;;;;;5022186;28;20107;-65
2022/04/15 11:21:23;;;;;;;1.77;0.90;;;5.30;99.90;;;;;;5049398;28;20518;-63
2022/04/15 11:24:00;;;;;;;4.72;1.52;;;5.30;99.90;;;;;;5029489;28;20057;-63
2022/04/15 11:26:28;;;;;;;4.40;1.83;;;5.30;99.90;;;;;;5027005;28;20260;-63
2022/04/15 11:28:57;;;;;;;2.92;1.27;;;5.30;99.90;;;;;;5037508;28;20057;-63
2022/04/15 11:31:36;;;;;;;4.22;1.50;;;5.40;99.90;;;;;;5042011;28;20517;-64
2022/04/15 11:34:08;;;;;;;3.67;1.55;;;5.40;99.90;;;;;;5040536;28;20226;-63
2022/04/15 11:36:40;;;;;;;3.03;1.30;;;5.30;99.90;;;;;;5038118;28;20136;-67
2022/04/15 11:39:09;;;;;;;2.13;1.27;;;5.40;99.90;;;;;;5006989;28;20045;-64
2022/04/15 11:41:45;;;;;;;4.28;1.35;;;5.40;99.90;;;;;;5033316;28;20375;-63
2022/04/15 11:44:13;;;;;;;6.43;1.42;;;5.50;99.90;;;;;;5037028;28;20461;-63
2022/04/15 11:46:48;;;;;;;10.95;2.58;;;5.50;99.90;;;;;;5030395;28;20060;-62
2022/04/15 11:49:16;;;;;;;3.40;1.42;;;5.60;99.90;;;;;;5029945;28;20065;-63
2022/04/15 11:51:50;;;;;;;7.28;2.45;;;5.60;99.90;;;;;;5037617;28;20075;-66
2022/04/15 11:54:29;;;;;;;2.72;1.20;;;5.50;99.90;;;;;;5030268;28;20053;-63
2022/04/15 11:56:58;;;;;;;1.67;1.00;;;5.60;99.90;;;;;;5035839;28;20057;-63
2022/04/15 11:59:25;;;;;;;5.15;1.45;;;5.50;99.90;;;;;;5026385;28;20068;-66
2022/04/15 12:01:59;;;;;;;1.55;1.00;;;5.50;99.90;;;;;;5042900;28;20140;-62
2022/04/15 12:04:25;;;;;;;1.80;1.17;;;5.60;99.90;;;;;;5040162;28;20483;-65
2022/04/15 12:06:52;;;;;;;6.63;1.38;;;5.60;99.90;;;;;;5036209;28;20208;-64
2022/04/15 12:09:19;;;;;;;2.95;1.17;;;5.60;99.90;;;;;;5033854;28;20541;-63
2022/04/15 12:12:05;;;;;;;3.15;1.23;;;5.70;99.90;;;;;;5043362;28;20115;-66
2022/04/15 12:14:53;;;;;;;3.78;1.20;;;5.60;99.90;;;;;;5036134;28;20076;-63
2022/04/15 12:17:21;;;;;;;2.72;1.00;;;5.70;99.90;;;;;;5041594;28;20040;-62
2022/04/15 12:19:49;;;;;;;2.90;1.30;;;5.70;99.90;;;;;;5039025;28;20049;-65
2022/04/15 12:22:16;;;;;;;4.55;0.98;;;5.70;99.90;;;;;;5048710;28;20076;-64
2022/04/15 12:24:43;;;;;;;3.10;1.33;;;5.70;99.90;;;;;;5034062;28;20046;-64
2022/04/15 12:27:16;;;;;;;5.03;1.48;;;5.80;99.90;;;;;;5040148;28;20402;-68
2022/04/15 12:29:48;;;;;;;2.72;1.67;;;5.90;99.90;;;;;;5041193;28;20064;-68
2022/04/15 12:32:25;;;;;;;6.38;1.55;;;6.00;99.90;;;;;;5043662;28;20039;-63
2022/04/15 12:34:55;;;;;;;4.35;1.02;;;6.10;99.90;;;;;;5041372;28;20361;-64
2022/04/15 12:37:49;;;;;;;11.10;2.85;;;6.10;99.90;;;;;;5039093;28;20038;-64
2022/04/15 12:40:29;;;;;;;4.35;1.77;;;6.00;99.90;;;;;;5039218;28;20037;-63
2022/04/15 12:43:11;;;;;;;3.83;1.98;;;6.00;99.90;;;;;;5043319;28;20069;-64
2022/04/15 12:45:57;;;;;;;2.90;1.38;;;6.10;99.90;;;;;;5032362;28;20045;-62
2022/04/15 12:48:24;;;;;;;3.88;1.45;;;6.10;99.90;;;;;;5032849;28;20083;-63
2022/04/15 12:50:58;;;;;;;3.88;1.40;;;6.20;99.90;;;;;;5035872;28;20033;-62
2022/04/15 12:53:26;;;;;;;2.88;1.27;;;6.10;99.90;;;;;;5034914;28;20135;-64
2022/04/15 12:56:06;;;;;;;1.67;1.38;;;6.10;99.90;;;;;;5044722;28;20394;-64
2022/04/15 12:58:33;;;;;;;9.27;2.63;;;6.20;99.90;;;;;;5035301;28;20041;-63
2022/04/15 13:01:00;;;;;;;1.83;1.42;;;6.30;99.90;;;;;;5042046;28;20037;-63
2022/04/15 13:03:34;;;;;;;5.82;1.85;;;6.40;99.90;;;;;;5045042;28;20045;-63
2022/04/15 13:06:02;;;;;;;3.70;1.10;;;6.50;99.90;;;;;;5039993;28;20155;-65
2022/04/15 13:08:29;;;;;;;5.95;1.20;;;6.40;99.90;;;;;;5049824;28;20768;-62
2022/04/15 13:10:56;;;;;;;1.58;0.90;;;6.50;99.90;;;;;;5039145;28;20160;-64
2022/04/15 13:13:33;;;;;;;3.83;2.10;;;6.50;99.90;;;;;;5048311;28;20091;-63